sensor_id;sensor_type;location;lat;lon;timestamp;P1;durP1;ratioP1;P2;durP2;ratioP2
71896;SDS011;59767;51.344;12.362;2022-10-16T00:02:50;2.85;;;0.70;;
71896;SDS011;59767;51.344;12.362;2022-10-16T00:05:54;3.42;;;1.08;;
71896;SDS011;59767;51.344;12.362;2022-10-16T00:09:03;3.33;;;0.75;;
71896;SDS011;59767;51.344;12.362;2022-10-16T00:12:07;3.85;;;0.73;;
71896;SDS011;59767;51.344;12.362;2022-10-16T00:15:11;1.90;;;0.70;;
71896;SDS011;59767;51.344;12.362;2022-10-16T00:18:15;1.80;;;0.80;;
71896;SDS011;59767;51.344;12.362;2022-10-16T00:21:20;3.63;;;0.70;;
71896;SDS011;59767;51.344;12.362;2022-10-16T00:24:28;3.35;;;0.73;;
71896;SDS011;59767;51.344;12.362;2022-10-16T00:27:33;3.20;;;0.75;;
71896;SDS011;59767;51.344;12.362;2022-10-16T00:30:38;1.67;;;0.73;;
71896;SDS011;59767;51.344;12.362;2022-10-16T00:33:42;1.58;;;0.80;;
71896;SDS011;59767;51.344;12.362;2022-10-16T00:36:46;1.48;;;0.80;;
71896;SDS011;59767;51.344;12.362;2022-10-16T00:39:50;5.45;;;0.90;;
71896;SDS011;59767;51.344;12.362;2022-10-16T00:42:54;1.35;;;0.57;;
71896;SDS011;59767;51.344;12.362;2022-10-16T00:45:59;2.67;;;0.80;;
71896;SDS011;59767;51.344;12.362;2022-10-16T00:49:06;4.03;;;0.70;;
71896;SDS011;59767;51.344;12.362;2022-10-16T00:52:13;3.83;;;0.85;;
71896;SDS011;59767;51.344;12.362;2022-10-16T00:55:18;1.45;;;0.80;;
71896;SDS011;59767;51.344;12.362;2022-10-16T00:58:23;1.90;;;0.63;;
71896;SDS011;59767;51.344;12.362;2022-10-16T01:01:27;3.42;;;0.90;;
71896;SDS011;59767;51.344;12.362;2022-10-16T01:04:34;1.50;;;0.70;;
71896;SDS011;59767;51.344;12.362;2022-10-16T01:11:06;1.52;;;0.80;;
71896;SDS011;59767;51.344;12.362;2022-10-16T01:14:45;1.45;;;0.70;;
71896;SDS011;59767;51.344;12.362;2022-10-16T01:18:00;5.13;;;1.30;;
71896;SDS011;59767;51.344;12.362;2022-10-16T01:24:44;1.80;;;0.60;;
71896;SDS011;59767;51.344;12.362;2022-10-16T01:27:51;2.53;;;1.00;;
71896;SDS011;59767;51.344;12.362;2022-10-16T01:30:57;3.20;;;0.90;;
71896;SDS011;59767;51.344;12.362;2022-10-16T01:34:07;4.82;;;0.90;;
71896;SDS011;59767;51.344;12.362;2022-10-16T01:37:20;0.95;;;0.70;;
71896;SDS011;59767;51.344;12.362;2022-10-16T01:40:32;3.60;;;0.90;;
71896;SDS011;59767;51.344;12.362;2022-10-16T01:43:49;2.75;;;0.90;;
71896;SDS011;59767;51.344;12.362;2022-10-16T01:47:00;2.53;;;0.95;;
71896;SDS011;59767;51.344;12.362;2022-10-16T01:50:05;3.20;;;0.80;;
71896;SDS011;59767;51.344;12.362;2022-10-16T01:53:12;2.60;;;0.75;;
71896;SDS011;59767;51.344;12.362;2022-10-16T01:56:18;3.75;;;0.70;;
71896;SDS011;59767;51.344;12.362;2022-10-16T01:59:26;2.85;;;0.80;;
71896;SDS011;59767;51.344;12.362;2022-10-16T02:02:34;0.60;;;0.57;;
71896;SDS011;59767;51.344;12.362;2022-10-16T02:05:40;3.38;;;0.90;;
71896;SDS011;59767;51.344;12.362;2022-10-16T02:08:47;5.13;;;1.10;;
71896;SDS011;59767;51.344;12.362;2022-10-16T02:11:52;2.55;;;1.00;;
71896;SDS011;59767;51.344;12.362;2022-10-16T02:14:58;2.28;;;0.85;;
71896;SDS011;59767;51.344;12.362;2022-10-16T02:18:02;1.55;;;0.75;;
71896;SDS011;59767;51.344;12.362;2022-10-16T02:24:41;2.58;;;0.80;;
71896;SDS011;59767;51.344;12.362;2022-10-16T02:28:07;2.20;;;1.00;;
71896;SDS011;59767;51.344;12.362;2022-10-16T02:31:20;0.75;;;0.68;;
71896;SDS011;59767;51.344;12.362;2022-10-16T02:34:30;2.63;;;0.80;;
71896;SDS011;59767;51.344;12.362;2022-10-16T02:37:36;2.47;;;0.70;;
71896;SDS011;59767;51.344;12.362;2022-10-16T02:40:42;2.78;;;0.93;;
71896;SDS011;59767;51.344;12.362;2022-10-16T02:43:46;1.73;;;0.60;;
71896;SDS011;59767;51.344;12.362;2022-10-16T02:46:50;5.40;;;0.98;;
71896;SDS011;59767;51.344;12.362;2022-10-16T02:49:54;3.40;;;1.00;;
71896;SDS011;59767;51.344;12.362;2022-10-16T02:52:58;2.72;;;1.00;;
71896;SDS011;59767;51.344;12.362;2022-10-16T02:56:02;4.28;;;0.82;;
71896;SDS011;59767;51.344;12.362;2022-10-16T02:59:06;6.53;;;0.90;;
71896;SDS011;59767;51.344;12.362;2022-10-16T03:02:10;1.30;;;0.70;;
71896;SDS011;59767;51.344;12.362;2022-10-16T03:05:14;2.63;;;0.90;;
71896;SDS011;59767;51.344;12.362;2022-10-16T03:08:18;3.47;;;1.02;;
71896;SDS011;59767;51.344;12.362;2022-10-16T03:11:27;2.30;;;0.90;;
71896;SDS011;59767;51.344;12.362;2022-10-16T03:14:32;2.58;;;0.82;;
71896;SDS011;59767;51.344;12.362;2022-10-16T03:17:36;4.72;;;0.88;;
71896;SDS011;59767;51.344;12.362;2022-10-16T03:20:42;2.42;;;0.93;;
71896;SDS011;59767;51.344;12.362;2022-10-16T03:23:46;4.07;;;1.15;;
71896;SDS011;59767;51.344;12.362;2022-10-16T03:26:50;2.42;;;0.75;;
71896;SDS011;59767;51.344;12.362;2022-10-16T03:29:54;2.28;;;0.80;;
71896;SDS011;59767;51.344;12.362;2022-10-16T03:32:58;3.17;;;0.68;;
71896;SDS011;59767;51.344;12.362;2022-10-16T03:36:02;3.85;;;0.73;;
71896;SDS011;59767;51.344;12.362;2022-10-16T03:39:06;3.05;;;1.02;;
71896;SDS011;59767;51.344;12.362;2022-10-16T03:42:10;5.03;;;1.00;;
71896;SDS011;59767;51.344;12.362;2022-10-16T03:45:14;3.80;;;1.23;;
71896;SDS011;59767;51.344;12.362;2022-10-16T03:48:18;7.10;;;1.10;;
71896;SDS011;59767;51.344;12.362;2022-10-16T03:51:22;3.22;;;1.00;;
71896;SDS011;59767;51.344;12.362;2022-10-16T03:54:26;3.22;;;1.05;;
71896;SDS011;59767;51.344;12.362;2022-10-16T03:57:31;6.30;;;1.00;;
71896;SDS011;59767;51.344;12.362;2022-10-16T04:00:35;1.50;;;0.77;;
71896;SDS011;59767;51.344;12.362;2022-10-16T04:03:39;3.60;;;0.90;;
71896;SDS011;59767;51.344;12.362;2022-10-16T04:06:43;1.73;;;0.80;;
71896;SDS011;59767;51.344;12.362;2022-10-16T04:09:47;1.88;;;0.90;;
71896;SDS011;59767;51.344;12.362;2022-10-16T04:12:51;2.17;;;0.88;;
71896;SDS011;59767;51.344;12.362;2022-10-16T04:15:55;2.65;;;0.80;;
71896;SDS011;59767;51.344;12.362;2022-10-16T04:18:59;3.28;;;1.08;;
71896;SDS011;59767;51.344;12.362;2022-10-16T04:22:03;4.18;;;1.20;;
71896;SDS011;59767;51.344;12.362;2022-10-16T04:25:07;2.95;;;0.98;;
71896;SDS011;59767;51.344;12.362;2022-10-16T04:28:11;7.30;;;1.13;;
71896;SDS011;59767;51.344;12.362;2022-10-16T04:31:15;3.53;;;1.10;;
71896;SDS011;59767;51.344;12.362;2022-10-16T04:34:18;4.85;;;1.00;;
71896;SDS011;59767;51.344;12.362;2022-10-16T04:37:23;4.15;;;1.05;;
71896;SDS011;59767;51.344;12.362;2022-10-16T04:40:29;3.85;;;1.00;;
71896;SDS011;59767;51.344;12.362;2022-10-16T04:43:36;3.40;;;1.00;;
71896;SDS011;59767;51.344;12.362;2022-10-16T04:46:40;1.63;;;0.80;;
71896;SDS011;59767;51.344;12.362;2022-10-16T04:49:44;2.40;;;0.93;;
71896;SDS011;59767;51.344;12.362;2022-10-16T04:52:48;2.05;;;0.90;;
71896;SDS011;59767;51.344;12.362;2022-10-16T04:55:52;5.13;;;1.10;;
71896;SDS011;59767;51.344;12.362;2022-10-16T04:58:56;2.30;;;0.95;;
71896;SDS011;59767;51.344;12.362;2022-10-16T05:02:00;2.97;;;0.93;;
71896;SDS011;59767;51.344;12.362;2022-10-16T05:05:04;2.33;;;0.77;;
71896;SDS011;59767;51.344;12.362;2022-10-16T05:08:09;4.65;;;1.00;;
71896;SDS011;59767;51.344;12.362;2022-10-16T05:11:13;1.85;;;0.90;;
71896;SDS011;59767;51.344;12.362;2022-10-16T05:14:17;2.25;;;1.17;;
71896;SDS011;59767;51.344;12.362;2022-10-16T05:17:21;3.90;;;1.05;;
71896;SDS011;59767;51.344;12.362;2022-10-16T05:20:26;6.50;;;1.00;;
71896;SDS011;59767;51.344;12.362;2022-10-16T05:23:30;2.92;;;1.08;;
71896;SDS011;59767;51.344;12.362;2022-10-16T05:26:34;1.80;;;1.00;;
71896;SDS011;59767;51.344;12.362;2022-10-16T05:29:38;2.60;;;1.00;;
71896;SDS011;59767;51.344;12.362;2022-10-16T05:32:46;4.10;;;1.20;;
71896;SDS011;59767;51.344;12.362;2022-10-16T05:35:51;2.13;;;1.10;;
71896;SDS011;59767;51.344;12.362;2022-10-16T05:38:55;2.83;;;1.10;;
71896;SDS011;59767;51.344;12.362;2022-10-16T05:41:59;2.55;;;1.10;;
71896;SDS011;59767;51.344;12.362;2022-10-16T05:45:04;4.68;;;1.23;;
71896;SDS011;59767;51.344;12.362;2022-10-16T05:48:09;1.08;;;0.90;;
71896;SDS011;59767;51.344;12.362;2022-10-16T05:51:13;2.72;;;1.02;;
71896;SDS011;59767;51.344;12.362;2022-10-16T05:54:18;5.68;;;1.30;;
71896;SDS011;59767;51.344;12.362;2022-10-16T05:57:22;2.75;;;1.10;;
71896;SDS011;59767;51.344;12.362;2022-10-16T06:00:27;4.68;;;1.20;;
71896;SDS011;59767;51.344;12.362;2022-10-16T06:03:31;8.35;;;1.10;;
71896;SDS011;59767;51.344;12.362;2022-10-16T06:06:35;5.30;;;1.10;;
71896;SDS011;59767;51.344;12.362;2022-10-16T06:09:39;4.18;;;0.98;;
71896;SDS011;59767;51.344;12.362;2022-10-16T06:12:43;5.15;;;1.10;;
71896;SDS011;59767;51.344;12.362;2022-10-16T06:15:47;4.18;;;0.90;;
71896;SDS011;59767;51.344;12.362;2022-10-16T06:18:52;2.10;;;1.02;;
71896;SDS011;59767;51.344;12.362;2022-10-16T06:21:57;5.18;;;1.00;;
71896;SDS011;59767;51.344;12.362;2022-10-16T06:25:02;3.63;;;1.00;;
71896;SDS011;59767;51.344;12.362;2022-10-16T06:28:06;5.22;;;1.00;;
71896;SDS011;59767;51.344;12.362;2022-10-16T06:31:10;3.08;;;0.98;;
71896;SDS011;59767;51.344;12.362;2022-10-16T06:34:15;4.00;;;1.20;;
71896;SDS011;59767;51.344;12.362;2022-10-16T06:37:19;5.43;;;1.23;;
71896;SDS011;59767;51.344;12.362;2022-10-16T06:40:22;3.72;;;1.10;;
71896;SDS011;59767;51.344;12.362;2022-10-16T06:43:28;5.85;;;1.23;;
71896;SDS011;59767;51.344;12.362;2022-10-16T06:46:39;3.60;;;1.35;;
71896;SDS011;59767;51.344;12.362;2022-10-16T06:49:43;5.03;;;1.13;;
71896;SDS011;59767;51.344;12.362;2022-10-16T06:52:46;2.30;;;0.98;;
71896;SDS011;59767;51.344;12.362;2022-10-16T06:55:51;2.28;;;0.82;;
71896;SDS011;59767;51.344;12.362;2022-10-16T06:58:55;4.00;;;0.93;;
71896;SDS011;59767;51.344;12.362;2022-10-16T07:01:59;3.38;;;1.20;;
71896;SDS011;59767;51.344;12.362;2022-10-16T07:05:03;4.60;;;0.98;;
71896;SDS011;59767;51.344;12.362;2022-10-16T07:08:07;4.00;;;1.02;;
71896;SDS011;59767;51.344;12.362;2022-10-16T07:11:13;5.00;;;1.23;;
71896;SDS011;59767;51.344;12.362;2022-10-16T07:14:19;4.45;;;1.15;;
71896;SDS011;59767;51.344;12.362;2022-10-16T07:17:24;4.82;;;1.25;;
71896;SDS011;59767;51.344;12.362;2022-10-16T07:20:28;1.55;;;0.90;;
71896;SDS011;59767;51.344;12.362;2022-10-16T07:23:32;1.52;;;1.10;;
71896;SDS011;59767;51.344;12.362;2022-10-16T07:26:36;2.88;;;1.20;;
71896;SDS011;59767;51.344;12.362;2022-10-16T07:29:42;4.13;;;1.10;;
71896;SDS011;59767;51.344;12.362;2022-10-16T07:32:47;3.17;;;1.15;;
71896;SDS011;59767;51.344;12.362;2022-10-16T07:35:51;4.97;;;1.20;;
71896;SDS011;59767;51.344;12.362;2022-10-16T07:38:56;1.30;;;0.98;;
71896;SDS011;59767;51.344;12.362;2022-10-16T07:42:02;4.32;;;1.10;;
71896;SDS011;59767;51.344;12.362;2022-10-16T07:45:06;2.78;;;1.00;;
71896;SDS011;59767;51.344;12.362;2022-10-16T07:48:11;2.72;;;0.90;;
71896;SDS011;59767;51.344;12.362;2022-10-16T07:51:16;4.38;;;0.90;;
71896;SDS011;59767;51.344;12.362;2022-10-16T07:54:23;5.30;;;1.20;;
71896;SDS011;59767;51.344;12.362;2022-10-16T07:57:27;2.92;;;1.10;;
71896;SDS011;59767;51.344;12.362;2022-10-16T08:00:32;2.00;;;0.77;;
71896;SDS011;59767;51.344;12.362;2022-10-16T08:03:37;1.00;;;0.70;;
71896;SDS011;59767;51.344;12.362;2022-10-16T08:06:41;3.33;;;0.75;;
71896;SDS011;59767;51.344;12.362;2022-10-16T08:09:48;3.58;;;0.70;;
71896;SDS011;59767;51.344;12.362;2022-10-16T08:12:54;3.53;;;0.80;;
71896;SDS011;59767;51.344;12.362;2022-10-16T08:15:58;0.80;;;0.50;;
71896;SDS011;59767;51.344;12.362;2022-10-16T08:19:02;1.55;;;0.57;;
71896;SDS011;59767;51.344;12.362;2022-10-16T08:22:06;1.42;;;0.60;;
71896;SDS011;59767;51.344;12.362;2022-10-16T08:25:10;1.60;;;0.65;;
71896;SDS011;59767;51.344;12.362;2022-10-16T08:28:14;1.58;;;0.80;;
71896;SDS011;59767;51.344;12.362;2022-10-16T08:31:20;3.00;;;0.50;;
71896;SDS011;59767;51.344;12.362;2022-10-16T08:34:24;4.38;;;0.68;;
71896;SDS011;59767;51.344;12.362;2022-10-16T08:37:31;3.20;;;0.70;;
71896;SDS011;59767;51.344;12.362;2022-10-16T08:40:36;1.85;;;0.52;;
71896;SDS011;59767;51.344;12.362;2022-10-16T08:47:35;0.95;;;0.40;;
71896;SDS011;59767;51.344;12.362;2022-10-16T08:50:47;2.88;;;0.80;;
71896;SDS011;59767;51.344;12.362;2022-10-16T08:54:37;2.50;;;0.65;;
71896;SDS011;59767;51.344;12.362;2022-10-16T08:57:29;2.55;;;0.65;;
71896;SDS011;59767;51.344;12.362;2022-10-16T09:00:35;1.58;;;0.55;;
71896;SDS011;59767;51.344;12.362;2022-10-16T09:13:52;1.05;;;0.50;;
71896;SDS011;59767;51.344;12.362;2022-10-16T09:17:27;1.25;;;0.50;;
71896;SDS011;59767;51.344;12.362;2022-10-16T09:20:42;0.63;;;0.45;;
71896;SDS011;59767;51.344;12.362;2022-10-16T09:23:54;1.75;;;0.68;;
71896;SDS011;59767;51.344;12.362;2022-10-16T09:27:02;0.55;;;0.50;;
71896;SDS011;59767;51.344;12.362;2022-10-16T09:30:13;2.58;;;0.50;;
71896;SDS011;59767;51.344;12.362;2022-10-16T09:33:20;3.92;;;0.60;;
71896;SDS011;59767;51.344;12.362;2022-10-16T09:36:29;1.27;;;0.50;;
71896;SDS011;59767;51.344;12.362;2022-10-16T09:39:46;1.40;;;0.50;;
71896;SDS011;59767;51.344;12.362;2022-10-16T09:42:55;1.25;;;0.50;;
71896;SDS011;59767;51.344;12.362;2022-10-16T09:46:08;1.65;;;0.70;;
71896;SDS011;59767;51.344;12.362;2022-10-16T09:49:25;0.95;;;0.50;;
71896;SDS011;59767;51.344;12.362;2022-10-16T09:52:30;1.73;;;0.70;;
71896;SDS011;59767;51.344;12.362;2022-10-16T09:55:34;2.40;;;0.88;;
71896;SDS011;59767;51.344;12.362;2022-10-16T09:58:42;2.70;;;0.70;;
71896;SDS011;59767;51.344;12.362;2022-10-16T10:01:49;4.07;;;0.73;;
71896;SDS011;59767;51.344;12.362;2022-10-16T10:04:55;3.67;;;0.70;;
71896;SDS011;59767;51.344;12.362;2022-10-16T10:08:01;1.50;;;0.70;;
71896;SDS011;59767;51.344;12.362;2022-10-16T10:11:10;3.95;;;0.80;;
71896;SDS011;59767;51.344;12.362;2022-10-16T10:14:23;2.05;;;0.73;;
71896;SDS011;59767;51.344;12.362;2022-10-16T10:17:30;2.47;;;0.80;;
71896;SDS011;59767;51.344;12.362;2022-10-16T10:20:35;4.25;;;0.88;;
71896;SDS011;59767;51.344;12.362;2022-10-16T10:23:42;2.58;;;0.90;;
71896;SDS011;59767;51.344;12.362;2022-10-16T10:26:54;4.22;;;1.00;;
71896;SDS011;59767;51.344;12.362;2022-10-16T10:43:55;1.10;;;0.70;;
71896;SDS011;59767;51.344;12.362;2022-10-16T10:47:31;1.88;;;0.93;;
71896;SDS011;59767;51.344;12.362;2022-10-16T11:01:04;1.98;;;0.82;;
71896;SDS011;59767;51.344;12.362;2022-10-16T11:04:25;3.13;;;0.90;;
71896;SDS011;59767;51.344;12.362;2022-10-16T11:11:08;2.75;;;0.90;;
71896;SDS011;59767;51.344;12.362;2022-10-16T11:18:22;4.65;;;1.60;;
71896;SDS011;59767;51.344;12.362;2022-10-16T11:21:35;4.65;;;1.80;;
71896;SDS011;59767;51.344;12.362;2022-10-16T11:24:55;8.10;;;2.28;;
71896;SDS011;59767;51.344;12.362;2022-10-16T11:31:28;4.40;;;1.73;;
71896;SDS011;59767;51.344;12.362;2022-10-16T11:34:39;4.18;;;1.30;;
71896;SDS011;59767;51.344;12.362;2022-10-16T11:37:48;5.47;;;1.60;;
71896;SDS011;59767;51.344;12.362;2022-10-16T11:40:54;5.43;;;1.85;;
71896;SDS011;59767;51.344;12.362;2022-10-16T11:47:51;4.90;;;1.65;;
71896;SDS011;59767;51.344;12.362;2022-10-16T11:51:06;3.13;;;1.20;;
71896;SDS011;59767;51.344;12.362;2022-10-16T11:54:20;4.43;;;1.80;;
71896;SDS011;59767;51.344;12.362;2022-10-16T11:57:33;3.80;;;1.40;;
71896;SDS011;59767;51.344;12.362;2022-10-16T12:00:46;1.55;;;1.08;;
71896;SDS011;59767;51.344;12.362;2022-10-16T12:04:09;3.35;;;1.17;;
71896;SDS011;59767;51.344;12.362;2022-10-16T12:07:24;3.47;;;1.30;;
71896;SDS011;59767;51.344;12.362;2022-10-16T12:10:36;3.55;;;1.40;;
71896;SDS011;59767;51.344;12.362;2022-10-16T12:13:47;3.15;;;1.50;;
71896;SDS011;59767;51.344;12.362;2022-10-16T12:16:55;3.15;;;1.27;;
71896;SDS011;59767;51.344;12.362;2022-10-16T12:23:19;2.90;;;1.10;;
71896;SDS011;59767;51.344;12.362;2022-10-16T12:26:26;3.55;;;1.10;;
71896;SDS011;59767;51.344;12.362;2022-10-16T12:29:33;6.45;;;1.30;;
71896;SDS011;59767;51.344;12.362;2022-10-16T12:32:40;3.40;;;1.30;;
71896;SDS011;59767;51.344;12.362;2022-10-16T12:35:50;2.55;;;1.20;;
71896;SDS011;59767;51.344;12.362;2022-10-16T12:38:55;3.63;;;1.05;;
71896;SDS011;59767;51.344;12.362;2022-10-16T12:42:22;3.42;;;1.00;;
71896;SDS011;59767;51.344;12.362;2022-10-16T12:45:33;2.15;;;0.80;;
71896;SDS011;59767;51.344;12.362;2022-10-16T12:48:39;4.25;;;0.93;;
71896;SDS011;59767;51.344;12.362;2022-10-16T12:52:04;3.53;;;1.00;;
71896;SDS011;59767;51.344;12.362;2022-10-16T12:55:18;5.20;;;1.08;;
71896;SDS011;59767;51.344;12.362;2022-10-16T12:58:37;3.08;;;1.38;;
71896;SDS011;59767;51.344;12.362;2022-10-16T13:02:04;2.53;;;1.00;;
71896;SDS011;59767;51.344;12.362;2022-10-16T13:05:32;1.85;;;1.20;;
71896;SDS011;59767;51.344;12.362;2022-10-16T13:09:05;2.58;;;1.13;;
71896;SDS011;59767;51.344;12.362;2022-10-16T13:15:39;3.95;;;1.10;;
71896;SDS011;59767;51.344;12.362;2022-10-16T13:19:01;5.07;;;1.25;;
71896;SDS011;59767;51.344;12.362;2022-10-16T13:28:51;3.58;;;1.00;;
71896;SDS011;59767;51.344;12.362;2022-10-16T13:31:55;1.40;;;0.70;;
71896;SDS011;59767;51.344;12.362;2022-10-16T13:35:00;6.00;;;1.00;;
71896;SDS011;59767;51.344;12.362;2022-10-16T13:38:12;4.18;;;1.10;;
71896;SDS011;59767;51.344;12.362;2022-10-16T13:41:18;1.70;;;0.93;;
71896;SDS011;59767;51.344;12.362;2022-10-16T13:44:22;1.67;;;0.80;;
71896;SDS011;59767;51.344;12.362;2022-10-16T13:47:26;1.25;;;0.73;;
71896;SDS011;59767;51.344;12.362;2022-10-16T13:50:33;1.27;;;0.70;;
71896;SDS011;59767;51.344;12.362;2022-10-16T13:53:37;1.10;;;0.70;;
71896;SDS011;59767;51.344;12.362;2022-10-16T13:56:41;1.65;;;0.90;;
71896;SDS011;59767;51.344;12.362;2022-10-16T13:59:45;1.00;;;0.70;;
71896;SDS011;59767;51.344;12.362;2022-10-16T14:02:50;3.45;;;1.00;;
71896;SDS011;59767;51.344;12.362;2022-10-16T14:06:00;3.85;;;0.80;;
71896;SDS011;59767;51.344;12.362;2022-10-16T14:09:06;1.67;;;0.85;;
71896;SDS011;59767;51.344;12.362;2022-10-16T14:12:16;4.55;;;0.98;;
71896;SDS011;59767;51.344;12.362;2022-10-16T14:15:20;2.15;;;1.15;;
71896;SDS011;59767;51.344;12.362;2022-10-16T14:18:25;3.17;;;1.10;;
71896;SDS011;59767;51.344;12.362;2022-10-16T14:21:39;3.65;;;1.00;;
71896;SDS011;59767;51.344;12.362;2022-10-16T14:24:44;4.25;;;0.90;;
71896;SDS011;59767;51.344;12.362;2022-10-16T14:31:27;1.65;;;0.80;;
71896;SDS011;59767;51.344;12.362;2022-10-16T14:34:35;1.50;;;0.80;;
71896;SDS011;59767;51.344;12.362;2022-10-16T14:37:43;2.10;;;1.08;;
71896;SDS011;59767;51.344;12.362;2022-10-16T14:40:48;3.42;;;1.17;;
71896;SDS011;59767;51.344;12.362;2022-10-16T14:43:54;4.35;;;1.35;;
71896;SDS011;59767;51.344;12.362;2022-10-16T14:47:11;7.93;;;2.47;;
71896;SDS011;59767;51.344;12.362;2022-10-16T14:50:17;5.95;;;2.50;;
71896;SDS011;59767;51.344;12.362;2022-10-16T14:53:21;2.92;;;1.50;;
71896;SDS011;59767;51.344;12.362;2022-10-16T14:56:27;3.60;;;1.60;;
71896;SDS011;59767;51.344;12.362;2022-10-16T14:59:40;2.33;;;1.10;;
71896;SDS011;59767;51.344;12.362;2022-10-16T15:02:49;7.10;;;1.33;;
71896;SDS011;59767;51.344;12.362;2022-10-16T15:05:53;5.15;;;1.63;;
71896;SDS011;59767;51.344;12.362;2022-10-16T15:08:57;6.93;;;1.10;;
71896;SDS011;59767;51.344;12.362;2022-10-16T15:12:02;7.47;;;1.30;;
71896;SDS011;59767;51.344;12.362;2022-10-16T15:18:19;5.82;;;1.20;;
71896;SDS011;59767;51.344;12.362;2022-10-16T15:21:24;6.78;;;0.98;;
71896;SDS011;59767;51.344;12.362;2022-10-16T15:24:30;3.83;;;1.00;;
71896;SDS011;59767;51.344;12.362;2022-10-16T15:27:34;3.40;;;1.20;;
71896;SDS011;59767;51.344;12.362;2022-10-16T15:30:44;2.80;;;0.95;;
71896;SDS011;59767;51.344;12.362;2022-10-16T15:33:50;3.65;;;1.20;;
71896;SDS011;59767;51.344;12.362;2022-10-16T15:37:02;4.43;;;1.10;;
71896;SDS011;59767;51.344;12.362;2022-10-16T15:40:07;5.65;;;1.20;;
71896;SDS011;59767;51.344;12.362;2022-10-16T15:43:12;3.25;;;1.40;;
71896;SDS011;59767;51.344;12.362;2022-10-16T15:46:17;4.68;;;1.20;;
71896;SDS011;59767;51.344;12.362;2022-10-16T15:49:25;3.20;;;1.40;;
71896;SDS011;59767;51.344;12.362;2022-10-16T15:52:29;5.65;;;1.30;;
71896;SDS011;59767;51.344;12.362;2022-10-16T15:55:35;3.90;;;1.30;;
71896;SDS011;59767;51.344;12.362;2022-10-16T15:58:41;2.65;;;1.27;;
71896;SDS011;59767;51.344;12.362;2022-10-16T16:01:45;2.97;;;1.33;;
71896;SDS011;59767;51.344;12.362;2022-10-16T16:04:49;2.97;;;1.40;;
71896;SDS011;59767;51.344;12.362;2022-10-16T16:07:53;3.47;;;1.58;;
71896;SDS011;59767;51.344;12.362;2022-10-16T16:11:00;4.45;;;1.65;;
71896;SDS011;59767;51.344;12.362;2022-10-16T16:14:06;4.07;;;1.58;;
71896;SDS011;59767;51.344;12.362;2022-10-16T16:17:14;4.60;;;1.63;;
71896;SDS011;59767;51.344;12.362;2022-10-16T16:20:19;3.65;;;1.60;;
71896;SDS011;59767;51.344;12.362;2022-10-16T16:23:22;4.93;;;1.65;;
71896;SDS011;59767;51.344;12.362;2022-10-16T16:26:27;4.65;;;1.75;;
71896;SDS011;59767;51.344;12.362;2022-10-16T16:29:39;6.53;;;1.70;;
71896;SDS011;59767;51.344;12.362;2022-10-16T16:32:43;5.00;;;1.60;;
71896;SDS011;59767;51.344;12.362;2022-10-16T16:35:48;7.00;;;2.05;;
71896;SDS011;59767;51.344;12.362;2022-10-16T16:38:51;5.93;;;2.03;;
71896;SDS011;59767;51.344;12.362;2022-10-16T16:41:56;7.65;;;2.60;;
71896;SDS011;59767;51.344;12.362;2022-10-16T16:45:02;6.00;;;2.17;;
71896;SDS011;59767;51.344;12.362;2022-10-16T16:48:06;10.18;;;2.50;;
71896;SDS011;59767;51.344;12.362;2022-10-16T16:51:11;6.75;;;2.55;;
71896;SDS011;59767;51.344;12.362;2022-10-16T16:54:21;8.05;;;2.60;;
71896;SDS011;59767;51.344;12.362;2022-10-16T16:57:25;9.88;;;3.20;;
71896;SDS011;59767;51.344;12.362;2022-10-16T17:00:29;8.45;;;2.78;;
71896;SDS011;59767;51.344;12.362;2022-10-16T17:03:34;5.93;;;2.50;;
71896;SDS011;59767;51.344;12.362;2022-10-16T17:06:39;5.97;;;2.50;;
71896;SDS011;59767;51.344;12.362;2022-10-16T17:09:44;6.90;;;2.42;;
71896;SDS011;59767;51.344;12.362;2022-10-16T17:12:48;8.73;;;1.95;;
71896;SDS011;59767;51.344;12.362;2022-10-16T17:15:52;4.93;;;1.90;;
71896;SDS011;59767;51.344;12.362;2022-10-16T17:19:00;4.95;;;2.10;;
71896;SDS011;59767;51.344;12.362;2022-10-16T17:22:08;5.25;;;2.20;;
71896;SDS011;59767;51.344;12.362;2022-10-16T17:25:12;7.18;;;2.22;;
71896;SDS011;59767;51.344;12.362;2022-10-16T17:28:16;7.05;;;2.40;;
71896;SDS011;59767;51.344;12.362;2022-10-16T17:31:22;8.77;;;2.50;;
71896;SDS011;59767;51.344;12.362;2022-10-16T17:34:30;5.47;;;2.35;;
71896;SDS011;59767;51.344;12.362;2022-10-16T17:37:34;5.60;;;2.20;;
71896;SDS011;59767;51.344;12.362;2022-10-16T17:40:38;7.18;;;2.50;;
71896;SDS011;59767;51.344;12.362;2022-10-16T17:43:43;4.18;;;2.10;;
71896;SDS011;59767;51.344;12.362;2022-10-16T17:46:49;4.97;;;2.40;;
71896;SDS011;59767;51.344;12.362;2022-10-16T17:49:55;5.97;;;2.25;;
71896;SDS011;59767;51.344;12.362;2022-10-16T17:53:01;6.50;;;2.63;;
71896;SDS011;59767;51.344;12.362;2022-10-16T17:56:05;6.72;;;2.17;;
71896;SDS011;59767;51.344;12.362;2022-10-16T17:59:15;8.25;;;2.53;;
71896;SDS011;59767;51.344;12.362;2022-10-16T18:02:19;8.75;;;2.65;;
71896;SDS011;59767;51.344;12.362;2022-10-16T18:05:23;7.35;;;2.70;;
71896;SDS011;59767;51.344;12.362;2022-10-16T18:08:28;6.78;;;2.50;;
71896;SDS011;59767;51.344;12.362;2022-10-16T18:11:32;6.85;;;2.83;;
71896;SDS011;59767;51.344;12.362;2022-10-16T18:14:40;5.38;;;2.42;;
71896;SDS011;59767;51.344;12.362;2022-10-16T18:17:46;6.93;;;2.60;;
71896;SDS011;59767;51.344;12.362;2022-10-16T18:21:00;5.65;;;2.45;;
71896;SDS011;59767;51.344;12.362;2022-10-16T18:24:05;8.18;;;2.75;;
71896;SDS011;59767;51.344;12.362;2022-10-16T18:27:10;6.55;;;2.88;;
71896;SDS011;59767;51.344;12.362;2022-10-16T18:30:14;7.78;;;3.15;;
71896;SDS011;59767;51.344;12.362;2022-10-16T18:33:18;9.43;;;3.10;;
71896;SDS011;59767;51.344;12.362;2022-10-16T18:36:26;10.27;;;2.67;;
71896;SDS011;59767;51.344;12.362;2022-10-16T18:39:37;10.85;;;3.78;;
71896;SDS011;59767;51.344;12.362;2022-10-16T18:42:41;10.38;;;3.55;;
71896;SDS011;59767;51.344;12.362;2022-10-16T18:49:23;6.68;;;2.80;;
71896;SDS011;59767;51.344;12.362;2022-10-16T18:52:29;6.15;;;2.70;;
71896;SDS011;59767;51.344;12.362;2022-10-16T18:55:34;6.50;;;2.83;;
71896;SDS011;59767;51.344;12.362;2022-10-16T18:58:39;6.43;;;2.63;;
71896;SDS011;59767;51.344;12.362;2022-10-16T19:01:50;8.45;;;3.03;;
71896;SDS011;59767;51.344;12.362;2022-10-16T19:04:55;6.35;;;2.83;;
71896;SDS011;59767;51.344;12.362;2022-10-16T19:07:59;7.93;;;3.25;;
71896;SDS011;59767;51.344;12.362;2022-10-16T19:11:04;8.35;;;3.00;;
71896;SDS011;59767;51.344;12.362;2022-10-16T19:14:16;10.00;;;3.73;;
71896;SDS011;59767;51.344;12.362;2022-10-16T19:17:20;8.88;;;3.40;;
71896;SDS011;59767;51.344;12.362;2022-10-16T19:20:24;7.93;;;3.28;;
71896;SDS011;59767;51.344;12.362;2022-10-16T19:23:28;9.40;;;3.40;;
71896;SDS011;59767;51.344;12.362;2022-10-16T19:26:33;9.18;;;3.10;;
71896;SDS011;59767;51.344;12.362;2022-10-16T19:29:43;10.45;;;3.20;;
71896;SDS011;59767;51.344;12.362;2022-10-16T19:32:48;7.55;;;2.95;;
71896;SDS011;59767;51.344;12.362;2022-10-16T19:35:53;10.15;;;3.28;;
71896;SDS011;59767;51.344;12.362;2022-10-16T19:39:11;10.27;;;3.45;;
71896;SDS011;59767;51.344;12.362;2022-10-16T19:42:17;7.03;;;3.00;;
71896;SDS011;59767;51.344;12.362;2022-10-16T19:45:24;6.80;;;3.15;;
71896;SDS011;59767;51.344;12.362;2022-10-16T19:48:28;8.07;;;2.80;;
71896;SDS011;59767;51.344;12.362;2022-10-16T19:51:38;6.53;;;2.50;;
71896;SDS011;59767;51.344;12.362;2022-10-16T19:54:48;9.80;;;2.97;;
71896;SDS011;59767;51.344;12.362;2022-10-16T19:57:53;7.45;;;2.85;;